sensor_id;sensor_type;location;lat;lon;timestamp;pressure;altitude;pressure_sealevel;temperature;humidity
9091;BME280;4581;42.416;25.598;2024-01-30T00:00:50;100431.19;;;0.90;nan
9091;BME280;4581;42.416;25.598;2024-01-30T00:03:18;100440.69;;;0.96;nan
9091;BME280;4581;42.416;25.598;2024-01-30T00:05:45;100431.84;;;0.96;nan
9091;BME280;4581;42.416;25.598;2024-01-30T00:08:11;100451.06;;;1.01;nan
9091;BME280;4581;42.416;25.598;2024-01-30T00:10:38;100445.91;;;0.98;nan
9091;BME280;4581;42.416;25.598;2024-01-30T00:13:05;100441.31;;;1.01;nan
9091;BME280;4581;42.416;25.598;2024-01-30T00:15:32;100435.22;;;0.99;nan
9091;BME280;4581;42.416;25.598;2024-01-30T00:17:59;100443.03;;;1.02;nan
9091;BME280;4581;42.416;25.598;2024-01-30T00:20:25;100442.97;;;1.04;nan
9091;BME280;4581;42.416;25.598;2024-01-30T00:22:52;100441.78;;;1.11;nan
9091;BME280;4581;42.416;25.598;2024-01-30T00:25:19;100444.56;;;1.08;nan
9091;BME280;4581;42.416;25.598;2024-01-30T00:27:46;100448.22;;;1.05;nan
9091;BME280;4581;42.416;25.598;2024-01-30T00:30:13;100442.25;;;1.00;nan
9091;BME280;4581;42.416;25.598;2024-01-30T00:32:40;100445.69;;;1.02;nan
9091;BME280;4581;42.416;25.598;2024-01-30T00:35:06;100441.31;;;1.01;nan
9091;BME280;4581;42.416;25.598;2024-01-30T00:37:33;100450.09;;;1.03;nan
9091;BME280;4581;42.416;25.598;2024-01-30T00:40:00;100433.44;;;1.00;nan
9091;BME280;4581;42.416;25.598;2024-01-30T00:42:27;100454.38;;;1.06;nan
9091;BME280;4581;42.416;25.598;2024-01-30T00:44:53;100442.97;;;1.04;nan
9091;BME280;4581;42.416;25.598;2024-01-30T00:47:20;100444.91;;;1.00;nan
9091;BME280;4581;42.416;25.598;2024-01-30T00:49:47;100444.78;;;1.03;nan
9091;BME280;4581;42.416;25.598;2024-01-30T00:52:14;100442.97;;;1.04;nan
9091;BME280;4581;42.416;25.598;2024-01-30T00:54:41;100449.38;;;1.00;nan
9091;BME280;4581;42.416;25.598;2024-01-30T00:57:07;100448.34;;;1.02;nan
9091;BME280;4581;42.416;25.598;2024-01-30T00:59:34;100436.88;;;1.02;nan
9091;BME280;4581;42.416;25.598;2024-01-30T01:02:01;100446.56;;;1.03;nan
9091;BME280;4581;42.416;25.598;2024-01-30T01:04:28;100445.44;;;1.08;nan
9091;BME280;4581;42.416;25.598;2024-01-30T01:06:55;100442.78;;;1.08;nan
9091;BME280;4581;42.416;25.598;2024-01-30T01:09:21;100443.72;;;1.07;nan
9091;BME280;4581;42.416;25.598;2024-01-30T01:11:48;100429.72;;;1.04;nan
9091;BME280;4581;42.416;25.598;2024-01-30T01:14:15;100430.44;;;1.07;nan
9091;BME280;4581;42.416;25.598;2024-01-30T01:16:42;100436.66;;;1.06;nan
9091;BME280;4581;42.416;25.598;2024-01-30T01:19:09;100429.72;;;1.04;nan
9091;BME280;4581;42.416;25.598;2024-01-30T01:21:35;100415.38;;;1.08;nan
9091;BME280;4581;42.416;25.598;2024-01-30T01:24:02;100419.09;;;1.04;nan
9091;BME280;4581;42.416;25.598;2024-01-30T01:26:29;100422.53;;;1.06;nan
9091;BME280;4581;42.416;25.598;2024-01-30T01:28:56;100407.25;;;1.11;nan
9091;BME280;4581;42.416;25.598;2024-01-30T01:31:22;100415.47;;;1.05;nan
9091;BME280;4581;42.416;25.598;2024-01-30T01:33:51;100402.94;;;1.08;nan
9091;BME280;4581;42.416;25.598;2024-01-30T01:36:18;100413.63;;;1.07;nan
9091;BME280;4581;42.416;25.598;2024-01-30T01:38:45;100415.63;;;1.02;nan
9091;BME280;4581;42.416;25.598;2024-01-30T01:41:12;100406.72;;;1.03;nan
9091;BME280;4581;42.416;25.598;2024-01-30T01:43:38;100405.59;;;1.08;nan
9091;BME280;4581;42.416;25.598;2024-01-30T01:46:06;100412.81;;;1.05;nan
9091;BME280;4581;42.416;25.598;2024-01-30T01:48:33;100414.50;;;1.07;nan
9091;BME280;4581;42.416;25.598;2024-01-30T01:51:00;100406.59;;;1.06;nan
9091;BME280;4581;42.416;25.598;2024-01-30T01:53:27;100410.03;;;1.08;nan
9091;BME280;4581;42.416;25.598;2024-01-30T01:55:54;100406.44;;;1.09;nan
9091;BME280;4581;42.416;25.598;2024-01-30T01:58:22;100405.50;;;1.10;nan
9091;BME280;4581;42.416;25.598;2024-01-30T02:00:51;100404.44;;;1.14;nan
9091;BME280;4581;42.416;25.598;2024-01-30T02:03:18;100401.72;;;1.15;nan
9091;BME280;4581;42.416;25.598;2024-01-30T02:05:50;100405.16;;;1.17;nan
9091;BME280;4581;42.416;25.598;2024-01-30T02:08:17;100402.44;;;1.19;nan
9091;BME280;4581;42.416;25.598;2024-01-30T02:10:44;100399.63;;;1.22;nan
9091;BME280;4581;42.416;25.598;2024-01-30T02:13:10;100396.84;;;1.25;nan
9091;BME280;4581;42.416;25.598;2024-01-30T02:15:37;100388.03;;;1.24;nan
9091;BME280;4581;42.416;25.598;2024-01-30T02:18:04;100394.31;;;1.22;nan
9091;BME280;4581;42.416;25.598;2024-01-30T02:20:31;100390.09;;;1.18;nan
9091;BME280;4581;42.416;25.598;2024-01-30T02:22:58;100389.31;;;1.16;nan
9091;BME280;4581;42.416;25.598;2024-01-30T02:25:39;100395.34;;;1.19;nan
9091;BME280;4581;42.416;25.598;2024-01-30T02:28:11;100393.66;;;1.17;nan
9091;BME280;4581;42.416;25.598;2024-01-30T02:30:39;100394.69;;;1.14;nan
9091;BME280;4581;42.416;25.598;2024-01-30T02:33:06;100404.22;;;1.18;nan
9091;BME280;4581;42.416;25.598;2024-01-30T02:35:33;100395.69;;;1.12;nan
9091;BME280;4581;42.416;25.598;2024-01-30T02:38:00;100399.28;;;1.11;nan
9091;BME280;4581;42.416;25.598;2024-01-30T02:40:27;100413.22;;;1.16;nan
9091;BME280;4581;42.416;25.598;2024-01-30T02:42:54;100408.47;;;1.22;nan
9091;BME280;4581;42.416;25.598;2024-01-30T02:45:21;100412.72;;;1.26;nan
9091;BME280;4581;42.416;25.598;2024-01-30T02:47:48;100411.78;;;1.27;nan
9091;BME280;4581;42.416;25.598;2024-01-30T02:50:14;100423.28;;;1.28;nan
9091;BME280;4581;42.416;25.598;2024-01-30T02:52:43;100423.78;;;1.36;nan
9091;BME280;4581;42.416;25.598;2024-01-30T02:55:10;100432.47;;;1.39;nan
9091;BME280;4581;42.416;25.598;2024-01-30T02:57:38;100425.63;;;1.34;nan
9091;BME280;4581;42.416;25.598;2024-01-30T03:00:05;100422.72;;;1.40;nan
9091;BME280;4581;42.416;25.598;2024-01-30T03:02:33;100423.53;;;1.40;nan
9091;BME280;4581;42.416;25.598;2024-01-30T03:04:59;100428.13;;;1.37;nan
9091;BME280;4581;42.416;25.598;2024-01-30T03:07:26;100420.88;;;1.40;nan
9091;BME280;4581;42.416;25.598;2024-01-30T03:09:53;100417.09;;;1.46;nan
9091;BME280;4581;42.416;25.598;2024-01-30T03:12:22;100427.72;;;1.46;nan
9091;BME280;4581;42.416;25.598;2024-01-30T03:14:49;100418.81;;;1.47;nan
9091;BME280;4581;42.416;25.598;2024-01-30T03:17:16;100431.09;;;1.50;nan
9091;BME280;4581;42.416;25.598;2024-01-30T03:19:43;100427.56;;;1.49;nan
9091;BME280;4581;42.416;25.598;2024-01-30T03:22:09;100420.19;;;1.56;nan
9091;BME280;4581;42.416;25.598;2024-01-30T03:24:36;100420.91;;;1.59;nan
9091;BME280;4581;42.416;25.598;2024-01-30T03:27:03;100421.97;;;1.55;nan
9091;BME280;4581;42.416;25.598;2024-01-30T03:29:30;100416.56;;;1.57;nan
9091;BME280;4581;42.416;25.598;2024-01-30T03:31:56;100418.25;;;1.59;nan
9091;BME280;4581;42.416;25.598;2024-01-30T03:34:23;100426.00;;;1.64;nan
9091;BME280;4581;42.416;25.598;2024-01-30T03:36:50;100423.41;;;1.62;nan
9091;BME280;4581;42.416;25.598;2024-01-30T03:39:17;100431.81;;;1.72;nan
9091;BME280;4581;42.416;25.598;2024-01-30T03:41:44;100432.59;;;1.74;nan
9091;BME280;4581;42.416;25.598;2024-01-30T03:44:11;100424.78;;;1.71;nan
9091;BME280;4581;42.416;25.598;2024-01-30T03:46:37;100423.91;;;1.70;nan
9091;BME280;4581;42.416;25.598;2024-01-30T03:49:04;100423.84;;;1.72;nan
9091;BME280;4581;42.416;25.598;2024-01-30T03:51:31;100419.53;;;1.69;nan
9091;BME280;4581;42.416;25.598;2024-01-30T03:53:58;100430.03;;;1.72;nan
9091;BME280;4581;42.416;25.598;2024-01-30T03:56:25;100431.72;;;1.73;nan
9091;BME280;4581;42.416;25.598;2024-01-30T03:58:52;100424.72;;;1.72;nan
9091;BME280;4581;42.416;25.598;2024-01-30T04:01:19;100419.47;;;1.71;nan
9091;BME280;4581;42.416;25.598;2024-01-30T04:03:45;100402.78;;;1.67;nan
9091;BME280;4581;42.416;25.598;2024-01-30T04:06:12;100408.00;;;1.69;nan
9091;BME280;4581;42.416;25.598;2024-01-30T04:08:39;100410.84;;;1.66;nan
9091;BME280;4581;42.416;25.598;2024-01-30T04:11:06;100416.09;;;1.67;nan
9091;BME280;4581;42.416;25.598;2024-01-30T04:13:33;100417.94;;;1.65;nan
9091;BME280;4581;42.416;25.598;2024-01-30T04:16:00;100420.47;;;1.68;nan
9091;BME280;4581;42.416;25.598;2024-01-30T04:18:28;100424.44;;;1.60;nan
9091;BME280;4581;42.416;25.598;2024-01-30T04:20:55;100430.31;;;1.66;nan
9091;BME280;4581;42.416;25.598;2024-01-30T04:23:22;100427.59;;;1.68;nan
9091;BME280;4581;42.416;25.598;2024-01-30T04:25:49;100429.66;;;1.61;nan
9091;BME280;4581;42.416;25.598;2024-01-30T04:28:16;100433.88;;;1.65;nan
9091;BME280;4581;42.416;25.598;2024-01-30T04:30:42;100434.75;;;1.66;nan
9091;BME280;4581;42.416;25.598;2024-01-30T04:33:10;100432.09;;;1.66;nan
9091;BME280;4581;42.416;25.598;2024-01-30T04:35:37;100428.00;;;1.59;nan
9091;BME280;4581;42.416;25.598;2024-01-30T04:38:04;100437.78;;;1.58;nan
9091;BME280;4581;42.416;25.598;2024-01-30T04:40:30;100428.00;;;1.59;nan
9091;BME280;4581;42.416;25.598;2024-01-30T04:42:57;100436.84;;;1.59;nan
9091;BME280;4581;42.416;25.598;2024-01-30T04:45:24;100434.34;;;1.56;nan
9091;BME280;4581;42.416;25.598;2024-01-30T04:47:51;100435.19;;;1.57;nan
9091;BME280;4581;42.416;25.598;2024-01-30T04:50:18;100432.31;;;1.61;nan
9091;BME280;4581;42.416;25.598;2024-01-30T04:52:45;100442.88;;;1.63;nan
9091;BME280;4581;42.416;25.598;2024-01-30T04:55:12;100447.97;;;1.67;nan
9091;BME280;4581;42.416;25.598;2024-01-30T04:57:39;100444.69;;;1.62;nan
9091;BME280;4581;42.416;25.598;2024-01-30T05:00:06;100447.28;;;1.64;nan
9091;BME280;4581;42.416;25.598;2024-01-30T05:02:33;100454.28;;;1.65;nan
9091;BME280;4581;42.416;25.598;2024-01-30T05:05:00;100449.06;;;1.63;nan
9091;BME280;4581;42.416;25.598;2024-01-30T05:07:27;100447.06;;;1.68;nan
9091;BME280;4581;42.416;25.598;2024-01-30T05:09:54;100458.63;;;1.67;nan
9091;BME280;4581;42.416;25.598;2024-01-30T05:12:24;100456.88;;;1.66;nan
9091;BME280;4581;42.416;25.598;2024-01-30T05:14:50;100455.25;;;1.64;nan
9091;BME280;4581;42.416;25.598;2024-01-30T05:17:17;100460.56;;;1.64;nan
9091;BME280;4581;42.416;25.598;2024-01-30T05:19:44;100457.97;;;1.62;nan
9091;BME280;4581;42.416;25.598;2024-01-30T05:22:11;100460.06;;;1.56;nan
9091;BME280;4581;42.416;25.598;2024-01-30T05:24:42;100450.91;;;1.61;nan
9091;BME280;4581;42.416;25.598;2024-01-30T05:27:09;100460.84;;;1.58;nan
9091;BME280;4581;42.416;25.598;2024-01-30T05:29:36;100463.59;;;1.56;nan
9091;BME280;4581;42.416;25.598;2024-01-30T05:32:03;100471.69;;;1.53;nan
9091;BME280;4581;42.416;25.598;2024-01-30T05:34:32;100471.56;;;1.56;nan
9091;BME280;4581;42.416;25.598;2024-01-30T05:36:58;100475.28;;;1.52;nan
9091;BME280;4581;42.416;25.598;2024-01-30T05:39:25;100460.31;;;1.50;nan
9091;BME280;4581;42.416;25.598;2024-01-30T05:41:52;100461.34;;;1.47;nan
9091;BME280;4581;42.416;25.598;2024-01-30T05:44:19;100469.38;;;1.46;nan
9091;BME280;4581;42.416;25.598;2024-01-30T05:46:46;100468.16;;;1.53;nan
9091;BME280;4581;42.416;25.598;2024-01-30T05:49:13;100476.00;;;1.56;nan
9091;BME280;4581;42.416;25.598;2024-01-30T05:51:39;100484.03;;;1.54;nan
9091;BME280;4581;42.416;25.598;2024-01-30T05:54:06;100478.72;;;1.54;nan
9091;BME280;4581;42.416;25.598;2024-01-30T05:56:33;100481.38;;;1.54;nan
9091;BME280;4581;42.416;25.598;2024-01-30T05:59:00;100485.56;;;1.60;nan
9091;BME280;4581;42.416;25.598;2024-01-30T06:01:27;100475.91;;;1.57;nan
9091;BME280;4581;42.416;25.598;2024-01-30T06:03:54;100472.34;;;1.58;nan
9091;BME280;4581;42.416;25.598;2024-01-30T06:06:20;100464.16;;;1.63;nan
9091;BME280;4581;42.416;25.598;2024-01-30T06:08:47;100464.91;;;1.65;nan
9091;BME280;4581;42.416;25.598;2024-01-30T06:11:14;100445.09;;;1.53;nan
9091;BME280;4581;42.416;25.598;2024-01-30T06:13:41;100448.56;;;1.55;nan
9091;BME280;4581;42.416;25.598;2024-01-30T06:16:10;100432.75;;;1.52;nan
9091;BME280;4581;42.416;25.598;2024-01-30T06:18:38;100428.28;;;1.53;nan
9091;BME280;4581;42.416;25.598;2024-01-30T06:21:05;100415.81;;;1.55;nan
9091;BME280;4581;42.416;25.598;2024-01-30T06:23:32;100422.25;;;1.49;nan
9091;BME280;4581;42.416;25.598;2024-01-30T06:25:59;100405.22;;;1.53;nan
9091;BME280;4581;42.416;25.598;2024-01-30T06:28:26;100420.31;;;1.53;nan
9091;BME280;4581;42.416;25.598;2024-01-30T06:30:53;100420.03;;;1.59;nan
9091;BME280;4581;42.416;25.598;2024-01-30T06:33:20;100421.56;;;1.64;nan
9091;BME280;4581;42.416;25.598;2024-01-30T06:35:47;100419.81;;;1.63;nan
9091;BME280;4581;42.416;25.598;2024-01-30T06:38:14;100422.31;;;1.66;nan
9091;BME280;4581;42.416;25.598;2024-01-30T06:40:42;100411.53;;;1.69;nan
9091;BME280;4581;42.416;25.598;2024-01-30T06:43:09;100422.97;;;1.71;nan
9091;BME280;4581;42.416;25.598;2024-01-30T06:45:36;100420.47;;;1.68;nan
9091;BME280;4581;42.416;25.598;2024-01-30T06:48:02;100419.47;;;1.71;nan
9091;BME280;4581;42.416;25.598;2024-01-30T06:50:29;100414.50;;;1.63;nan
9091;BME280;4581;42.416;25.598;2024-01-30T06:52:56;100413.44;;;1.67;nan
9091;BME280;4581;42.416;25.598;2024-01-30T06:55:23;100422.75;;;1.76;nan
9091;BME280;4581;42.416;25.598;2024-01-30T06:57:50;100419.16;;;1.77;nan
9091;BME280;4581;42.416;25.598;2024-01-30T07:00:17;100423.53;;;1.78;nan
9091;BME280;4581;42.416;25.598;2024-01-30T07:02:46;100419.63;;;1.85;nan
9091;BME280;4581;42.416;25.598;2024-01-30T07:05:12;100419.88;;;1.80;nan
9091;BME280;4581;42.416;25.598;2024-01-30T07:07:39;100422.53;;;1.80;nan
9091;BME280;4581;42.416;25.598;2024-01-30T07:10:07;100422.53;;;1.80;nan
9091;BME280;4581;42.416;25.598;2024-01-30T07:12:34;100427.00;;;1.80;nan
9091;BME280;4581;42.416;25.598;2024-01-30T07:15:00;100434.59;;;1.87;nan
9091;BME280;4581;42.416;25.598;2024-01-30T07:17:29;100417.06;;;1.83;nan
9091;BME280;4581;42.416;25.598;2024-01-30T07:19:56;100434.75;;;1.84;nan
9091;BME280;4581;42.416;25.598;2024-01-30T07:22:22;100439.00;;;1.88;nan
9091;BME280;4581;42.416;25.598;2024-01-30T07:24:49;100418.34;;;1.94;nan
9091;BME280;4581;42.416;25.598;2024-01-30T07:27:18;100431.25;;;2.01;nan
9091;BME280;4581;42.416;25.598;2024-01-30T07:29:45;100435.41;;;2.07;nan
9091;BME280;4581;42.416;25.598;2024-01-30T07:32:12;100444.75;;;2.15;nan
9091;BME280;4581;42.416;25.598;2024-01-30T07:34:38;100446.31;;;2.19;nan
9091;BME280;4581;42.416;25.598;2024-01-30T07:37:14;100452.28;;;2.24;nan
9091;BME280;4581;42.416;25.598;2024-01-30T07:39:42;100452.28;;;2.24;nan
9091;BME280;4581;42.416;25.598;2024-01-30T07:42:09;100462.53;;;2.32;nan
9091;BME280;4581;42.416;25.598;2024-01-30T07:44:36;100446.09;;;2.41;nan
9091;BME280;4581;42.416;25.598;2024-01-30T07:47:03;100450.97;;;2.50;nan
9091;BME280;4581;42.416;25.598;2024-01-30T07:49:29;100452.38;;;2.57;nan
9091;BME280;4581;42.416;25.598;2024-01-30T07:52:00;100446.59;;;2.66;nan
9091;BME280;4581;42.416;25.598;2024-01-30T07:54:27;100459.19;;;2.80;nan
9091;BME280;4581;42.416;25.598;2024-01-30T07:57:00;100451.91;;;2.83;nan
9091;BME280;4581;42.416;25.598;2024-01-30T07:59:27;100446.34;;;2.88;nan
9091;BME280;4581;42.416;25.598;2024-01-30T08:01:54;100457.75;;;3.40;nan
9091;BME280;4581;42.416;25.598;2024-01-30T08:04:21;100442.91;;;3.67;nan
9091;BME280;4581;42.416;25.598;2024-01-30T08:06:48;100458.03;;;3.83;nan
9091;BME280;4581;42.416;25.598;2024-01-30T08:09:15;100451.69;;;4.16;nan
9091;BME280;4581;42.416;25.598;2024-01-30T08:11:41;100462.88;;;3.92;nan
9091;BME280;4581;42.416;25.598;2024-01-30T08:14:08;100457.97;;;3.68;nan
9091;BME280;4581;42.416;25.598;2024-01-30T08:16:35;100466.13;;;3.65;nan
9091;BME280;4581;42.416;25.598;2024-01-30T08:19:02;100480.47;;;3.47;nan
9091;BME280;4581;42.416;25.598;2024-01-30T08:21:29;100478.97;;;3.42;nan
9091;BME280;4581;42.416;25.598;2024-01-30T08:23:56;100494.09;;;3.41;nan
9091;BME280;4581;42.416;25.598;2024-01-30T08:26:23;100491.34;;;3.27;nan
9091;BME280;4581;42.416;25.598;2024-01-30T08:28:50;100497.03;;;3.37;nan
9091;BME280;4581;42.416;25.598;2024-01-30T08:31:18;100501.72;;;3.49;nan
9091;BME280;4581;42.416;25.598;2024-01-30T08:33:45;100499.50;;;3.57;nan
9091;BME280;4581;42.416;25.598;2024-01-30T08:36:15;100503.16;;;3.87;nan
9091;BME280;4581;42.416;25.598;2024-01-30T08:38:42;100499.88;;;3.98;nan
9091;BME280;4581;42.416;25.598;2024-01-30T08:41:08;100503.84;;;4.22;nan
9091;BME280;4581;42.416;25.598;2024-01-30T08:43:35;100502.63;;;4.43;nan
9091;BME280;4581;42.416;25.598;2024-01-30T08:46:03;100516.13;;;4.56;nan
9091;BME280;4581;42.416;25.598;2024-01-30T08:48:30;100525.78;;;4.27;nan
9091;BME280;4581;42.416;25.598;2024-01-30T08:50:57;100526.75;;;4.26;nan
9091;BME280;4581;42.416;25.598;2024-01-30T08:53:23;100528.47;;;4.27;nan
9091;BME280;4581;42.416;25.598;2024-01-30T08:55:51;100532.25;;;4.07;nan
9091;BME280;4581;42.416;25.598;2024-01-30T08:58:17;100541.38;;;4.03;nan
9091;BME280;4581;42.416;25.598;2024-01-30T09:00:45;100537.22;;;3.98;nan
9091;BME280;4581;42.416;25.598;2024-01-30T09:03:12;100539.66;;;4.02;nan
9091;BME280;4581;42.416;25.598;2024-01-30T09:05:39;100546.78;;;4.02;nan
9091;BME280;4581;42.416;25.598;2024-01-30T09:08:06;100558.50;;;3.99;nan
9091;BME280;4581;42.416;25.598;2024-01-30T09:10:33;100544.28;;;3.99;nan
9091;BME280;4581;42.416;25.598;2024-01-30T09:13:00;100542.06;;;3.91;nan
9091;BME280;4581;42.416;25.598;2024-01-30T09:15:27;100550.00;;;3.93;nan
9091;BME280;4581;42.416;25.598;2024-01-30T09:17:53;100536.75;;;3.74;nan
9091;BME280;4581;42.416;25.598;2024-01-30T09:20:20;100540.75;;;3.83;nan
9091;BME280;4581;42.416;25.598;2024-01-30T09:22:48;100538.94;;;3.83;nan
9091;BME280;4581;42.416;25.598;2024-01-30T09:25:16;100542.22;;;3.88;nan
9091;BME280;4581;42.416;25.598;2024-01-30T09:27:42;100543.84;;;3.91;nan
9091;BME280;4581;42.416;25.598;2024-01-30T09:30:09;100545.41;;;3.95;nan
9091;BME280;4581;42.416;25.598;2024-01-30T09:32:36;100533.38;;;4.03;nan
9091;BME280;4581;42.416;25.598;2024-01-30T09:35:03;100528.28;;;4.14;nan
9091;BME280;4581;42.416;25.598;2024-01-30T09:37:30;100515.44;;;4.52;nan
9091;BME280;4581;42.416;25.598;2024-01-30T09:39:57;100511.66;;;4.56;nan
9091;BME280;4581;42.416;25.598;2024-01-30T09:42:28;100488.25;;;4.30;nan
9091;BME280;4581;42.416;25.598;2024-01-30T09:44:59;100481.28;;;4.12;nan
9091;BME280;4581;42.416;25.598;2024-01-30T09:47:26;100485.06;;;4.23;nan
9091;BME280;4581;42.416;25.598;2024-01-30T09:49:53;100478.00;;;4.22;nan
9091;BME280;4581;42.416;25.598;2024-01-30T09:52:21;100478.00;;;4.07;nan
9091;BME280;4581;42.416;25.598;2024-01-30T09:54:49;100478.28;;;3.87;nan
9091;BME280;4581;42.416;25.598;2024-01-30T09:57:17;100476.81;;;3.81;nan
9091;BME280;4581;42.416;25.598;2024-01-30T09:59:44;100484.28;;;4.06;nan
9091;BME280;4581;42.416;25.598;2024-01-30T10:02:11;100477.56;;;4.30;nan
9091;BME280;4581;42.416;25.598;2024-01-30T10:04:38;100465.63;;;5.25;nan
9091;BME280;4581;42.416;25.598;2024-01-30T10:07:05;100467.91;;;5.88;nan
9091;BME280;4581;42.416;25.598;2024-01-30T10:09:32;100454.50;;;5.03;nan
9091;BME280;4581;42.416;25.598;2024-01-30T10:12:01;100437.41;;;4.77;nan
9091;BME280;4581;42.416;25.598;2024-01-30T10:14:30;100443.69;;;4.46;nan
9091;BME280;4581;42.416;25.598;2024-01-30T10:16:57;100447.28;;;4.61;nan
9091;BME280;4581;42.416;25.598;2024-01-30T10:19:24;100440.88;;;4.63;nan
9091;BME280;4581;42.416;25.598;2024-01-30T10:21:51;100444.50;;;4.62;nan
9091;BME280;4581;42.416;25.598;2024-01-30T10:24:18;100441.59;;;4.51;nan
9091;BME280;4581;42.416;25.598;2024-01-30T10:26:50;100432.03;;;4.02;nan
9091;BME280;4581;42.416;25.598;2024-01-30T10:29:17;100442.19;;;4.11;nan
9091;BME280;4581;42.416;25.598;2024-01-30T10:31:43;100441.75;;;4.18;nan
9091;BME280;4581;42.416;25.598;2024-01-30T10:34:10;100438.81;;;4.23;nan
9091;BME280;4581;42.416;25.598;2024-01-30T10:36:46;100436.88;;;4.11;nan
9091;BME280;4581;42.416;25.598;2024-01-30T10:39:17;100429.63;;;4.29;nan
9091;BME280;4581;42.416;25.598;2024-01-30T10:41:47;100435.28;;;4.22;nan
9091;BME280;4581;42.416;25.598;2024-01-30T10:44:18;100433.69;;;4.04;nan
9091;BME280;4581;42.416;25.598;2024-01-30T10:46:53;100436.69;;;4.14;nan
9091;BME280;4581;42.416;25.598;2024-01-30T10:49:23;100429.22;;;4.05;nan
9091;BME280;4581;42.416;25.598;2024-01-30T10:51:52;100429.31;;;4.03;nan
9091;BME280;4581;42.416;25.598;2024-01-30T10:54:19;100434.72;;;4.02;nan
9091;BME280;4581;42.416;25.598;2024-01-30T10:56:48;100429.91;;;3.93;nan
9091;BME280;4581;42.416;25.598;2024-01-30T10:59:15;100430.16;;;4.04;nan
9091;BME280;4581;42.416;25.598;2024-01-30T11:01:42;100428.38;;;4.34;nan
9091;BME280;4581;42.416;25.598;2024-01-30T11:04:09;100433.41;;;4.54;nan
9091;BME280;4581;42.416;25.598;2024-01-30T11:06:43;100439.31;;;4.30;nan
9091;BME280;4581;42.416;25.598;2024-01-30T11:09:11;100433.25;;;4.12;nan
9091;BME280;4581;42.416;25.598;2024-01-30T11:11:55;100437.00;;;4.39;nan
9091;BME280;4581;42.416;25.598;2024-01-30T11:14:29;100434.75;;;5.34;nan
9091;BME280;4581;42.416;25.598;2024-01-30T11:16:59;100445.34;;;6.85;nan
9091;BME280;4581;42.416;25.598;2024-01-30T11:19:27;100451.72;;;8.32;nan
9091;BME280;4581;42.416;25.598;2024-01-30T11:21:55;100442.59;;;10.38;nan
9091;BME280;4581;42.416;25.598;2024-01-30T11:24:24;100456.81;;;12.44;nan
9091;BME280;4581;42.416;25.598;2024-01-30T11:27:00;100452.59;;;12.90;nan
9091;BME280;4581;42.416;25.598;2024-01-30T11:29:30;100455.34;;;12.11;nan
9091;BME280;4581;42.416;25.598;2024-01-30T11:32:00;100454.44;;;11.20;nan
9091;BME280;4581;42.416;25.598;2024-01-30T11:34:27;100446.97;;;9.63;nan
9091;BME280;4581;42.416;25.598;2024-01-30T11:36:59;100446.38;;;8.20;nan
9091;BME280;4581;42.416;25.598;2024-01-30T11:39:32;100439.44;;;7.56;nan
9091;BME280;4581;42.416;25.598;2024-01-30T11:41:59;100433.34;;;7.03;nan
9091;BME280;4581;42.416;25.598;2024-01-30T11:44:26;100432.78;;;6.73;nan
9091;BME280;4581;42.416;25.598;2024-01-30T11:46:53;100425.34;;;6.24;nan
9091;BME280;4581;42.416;25.598;2024-01-30T11:49:20;100428.16;;;5.82;nan
9091;BME280;4581;42.416;25.598;2024-01-30T11:51:47;100422.34;;;5.04;nan
9091;BME280;4581;42.416;25.598;2024-01-30T11:54:17;100426.75;;;5.34;nan
9091;BME280;4581;42.416;25.598;2024-01-30T11:56:44;100427.81;;;5.31;nan
9091;BME280;4581;42.416;25.598;2024-01-30T11:59:11;100417.59;;;5.09;nan
9091;BME280;4581;42.416;25.598;2024-01-30T12:01:38;100418.75;;;5.05;nan
9091;BME280;4581;42.416;25.598;2024-01-30T12:04:05;100417.38;;;4.84;nan
9091;BME280;4581;42.416;25.598;2024-01-30T12:06:36;100409.41;;;4.68;nan
9091;BME280;4581;42.416;25.598;2024-01-30T12:09:03;100412.03;;;4.54;nan
9091;BME280;4581;42.416;25.598;2024-01-30T12:11:30;100413.91;;;4.38;nan
9091;BME280;4581;42.416;25.598;2024-01-30T12:13:57;100409.38;;;4.24;nan
9091;BME280;4581;42.416;25.598;2024-01-30T12:16:24;100386.16;;;4.11;nan
9091;BME280;4581;42.416;25.598;2024-01-30T12:18:59;100400.78;;;4.19;nan
9091;BME280;4581;42.416;25.598;2024-01-30T12:21:28;100386.38;;;4.22;nan
9091;BME280;4581;42.416;25.598;2024-01-30T12:23:59;100386.34;;;4.38;nan
9091;BME280;4581;42.416;25.598;2024-01-30T12:26:26;100394.06;;;4.42;nan
9091;BME280;4581;42.416;25.598;2024-01-30T12:28:56;100404.31;;;4.50;nan
9091;BME280;4581;42.416;25.598;2024-01-30T12:31:28;100383.22;;;4.15;nan
9091;BME280;4581;42.416;25.598;2024-01-30T12:33:55;100370.22;;;4.09;nan
9091;BME280;4581;42.416;25.598;2024-01-30T12:36:23;100367.28;;;4.14;nan
9091;BME280;4581;42.416;25.598;2024-01-30T12:38:50;100375.28;;;4.14;nan
9091;BME280;4581;42.416;25.598;2024-01-30T12:41:18;100382.25;;;4.32;nan
9091;BME280;4581;42.416;25.598;2024-01-30T12:43:46;100382.84;;;4.37;nan
9091;BME280;4581;42.416;25.598;2024-01-30T12:46:17;100377.75;;;4.33;nan
9091;BME280;4581;42.416;25.598;2024-01-30T12:48:44;100378.50;;;6.44;nan
9091;BME280;4581;42.416;25.598;2024-01-30T12:51:10;100379.56;;;7.79;nan
9091;BME280;4581;42.416;25.598;2024-01-30T12:53:37;100383.75;;;6.58;nan
9091;BME280;4581;42.416;25.598;2024-01-30T12:56:04;100378.22;;;5.40;nan
9091;BME280;4581;42.416;25.598;2024-01-30T12:58:31;100375.22;;;5.17;nan
9091;BME280;4581;42.416;25.598;2024-01-30T13:00:58;100362.56;;;4.63;nan
9091;BME280;4581;42.416;25.598;2024-01-30T13:03:25;100366.56;;;4.26;nan
9091;BME280;4581;42.416;25.598;2024-01-30T13:05:52;100355.06;;;4.10;nan
9091;BME280;4581;42.416;25.598;2024-01-30T13:08:19;100360.44;;;3.94;nan
9091;BME280;4581;42.416;25.598;2024-01-30T13:10:46;100364.06;;;3.93;nan
9091;BME280;4581;42.416;25.598;2024-01-30T13:13:15;100349.06;;;3.61;nan
9091;BME280;4581;42.416;25.598;2024-01-30T13:15:45;100341.81;;;3.63;nan
9091;BME280;4581;42.416;25.598;2024-01-30T13:18:12;100341.75;;;3.49;nan
9091;BME280;4581;42.416;25.598;2024-01-30T13:20:39;100339.59;;;3.40;nan
9091;BME280;4581;42.416;25.598;2024-01-30T13:23:06;100343.47;;;3.34;nan
9091;BME280;4581;42.416;25.598;2024-01-30T13:25:32;100341.34;;;3.41;nan
9091;BME280;4581;42.416;25.598;2024-01-30T13:27:59;100334.69;;;3.32;nan
9091;BME280;4581;42.416;25.598;2024-01-30T13:30:26;100339.16;;;3.32;nan
9091;BME280;4581;42.416;25.598;2024-01-30T13:32:53;100342.25;;;3.24;nan